首页
METAR-TAF:

METAR-TAF

机场 :

堪薩斯城, 密蘇里州, 美国

纬度: 39-17-50N, 经度: 094-43-50W, 海拔: 312米

当前天气观测

该预报发布于9分钟前的09:29 UTC
风速5节,风向东转东南
温度 19°C
湿度 94%
气压 1008 hPa
能見度: 16.1公里
阴天层高于800英尺
小雨

METAR: KMCI 260929Z 12005KT 10SM -RA OVC008 19/18 A2978 RMK AO2 P0001 T01940183 $

时间: 04:38 (09:38 UTC)

预报

该预报发布于3小时和2分钟前的06:36 UTC
预报有效从26日的 07点(UTC)到 27日的 06点(UTC)
风速5节,风向东北
能見度: 9.7公里
阴天层高于1500英尺, 积雨云.
小阵雨, 附近有雷暴
短暂存在
从 26日的 07点(UTC)到 26日的 11点(UTC)
能見度: 3.2公里
阴天层高于500英尺, 积雨云.
雷暴, 小雨
从 26日的 1200点(UTC)
风速8节,风向多变
能見度: 10公里
阴天层高于1500英尺
附近有阵雨
从 26日的 1500点(UTC)
风速5节,风向西转西南
能見度: 10公里
多云层高于2500英尺
从 27日的 0300点(UTC)
风速5节,风向西南
能見度: 10公里
散云层高于2500英尺
散云层高于6000英尺

TAF: KMCI 260636Z 2607/2706 05005KT 6SM -SHRA VCTS OVC015CB TEMPO 2607/2611 2SM -TSRA OVC005CB FM261200 VRB08KT P6SM VCSH OVC015 FM261500 25005KT P6SM BKN025 FM270300 22005KT P6SM SCT025 SCT060

超过4000个机场的气象观测和天气预报(METAR&TAF报告)。

可查询的气象台以黄色和红色小点在地图上表示。

将鼠标移到小点上方,可查看气象台名称。

然后点击查看天气观测和预报。

如需切换地图:点击带黑十字的绿色按钮放大地图;点击带横线的绿色按钮缩小地图;或者点击绿色箭头查看邻近地区的地图。


METAR-TAF: